Time;durP1;ratioP1;P1;durP2;ratioP2;P2;SDS_P1;SDS_P2;PMS_P1;PMS_P2;Temp;Humidity;BMP_temperature;BMP_pressure;BME280_temperature;BME280_humidity;BME280_pressure;Samples;Min_cycle;Max_cycle;Signal;HPM_P1;HPM_P2
2023/07/10 00:00:35;;;;;;;17.40;13.18;;;19.20;99.90;;;;;;5073805;28;20076;-40
2023/07/10 00:03:01;;;;;;;20.98;13.02;;;19.10;99.90;;;;;;5073828;28;20040;-41
2023/07/10 00:05:26;;;;;;;17.05;12.23;;;19.20;99.90;;;;;;5073798;28;20063;-42
2023/07/10 00:07:52;;;;;;;15.20;12.95;;;19.20;99.90;;;;;;5074013;28;20101;-40
2023/07/10 00:10:18;;;;;;;15.43;12.80;;;19.00;99.90;;;;;;5074322;28;20052;-42
2023/07/10 00:12:44;;;;;;;19.27;13.68;;;19.10;99.90;;;;;;5073633;28;20044;-43
2023/07/10 00:15:12;;;;;;;19.30;13.00;;;19.00;99.90;;;;;;5073898;28;20041;-40
2023/07/10 00:17:38;;;;;;;18.23;13.13;;;19.10;99.90;;;;;;5073488;28;20402;-43
2023/07/10 00:20:15;;;;;;;19.42;13.93;;;19.10;99.90;;;;;;5073389;28;20052;-40
2023/07/10 00:22:44;;;;;;;20.35;13.48;;;19.10;99.90;;;;;;5073404;28;20047;-40
2023/07/10 00:25:11;;;;;;;22.90;13.90;;;19.10;99.90;;;;;;5073265;28;20048;-41
2023/07/10 00:27:37;;;;;;;20.27;13.13;;;19.10;99.90;;;;;;5073125;28;20433;-42
2023/07/10 00:30:12;;;;;;;18.50;13.65;;;19.10;99.90;;;;;;5073594;28;20047;-40
2023/07/10 00:32:38;;;;;;;18.50;13.95;;;19.00;99.90;;;;;;5075955;28;20123;-42
2023/07/10 00:35:04;;;;;;;25.58;14.63;;;19.00;99.90;;;;;;5072666;28;20115;-40
2023/07/10 00:37:30;;;;;;;17.77;13.48;;;19.10;99.90;;;;;;5072958;28;20047;-42
2023/07/10 00:39:56;;;;;;;21.27;14.13;;;18.90;99.90;;;;;;5072966;28;20040;-40
2023/07/10 00:42:23;;;;;;;15.75;12.45;;;19.00;99.90;;;;;;5073140;28;20044;-41
2023/07/10 00:44:54;;;;;;;17.48;13.18;;;19.00;99.90;;;;;;5072934;28;20118;-40
2023/07/10 00:47:33;;;;;;;14.50;12.55;;;19.00;99.90;;;;;;5072901;28;20499;-41
2023/07/10 00:50:09;;;;;;;17.20;13.18;;;18.90;99.90;;;;;;5071901;28;20054;-41
2023/07/10 00:52:39;;;;;;;18.50;13.45;;;19.10;99.90;;;;;;5073101;28;20067;-40
2023/07/10 00:55:14;;;;;;;17.30;12.02;;;19.30;99.90;;;;;;5072921;28;20053;-41
2023/07/10 00:57:41;;;;;;;15.30;12.02;;;18.90;99.90;;;;;;5072926;28;20055;-40
2023/07/10 01:00:21;;;;;;;16.67;12.18;;;18.90;99.90;;;;;;5073068;28;20036;-40
2023/07/10 01:02:48;;;;;;;18.05;12.75;;;19.00;99.90;;;;;;5072950;28;20175;-40
2023/07/10 01:05:16;;;;;;;16.92;12.45;;;19.00;99.90;;;;;;5073203;28;20044;-40
2023/07/10 01:07:47;;;;;;;18.35;13.35;;;19.00;99.90;;;;;;5072723;28;20131;-40
2023/07/10 01:10:12;;;;;;;16.00;11.95;;;19.00;99.90;;;;;;5072758;28;20167;-41
2023/07/10 01:12:41;;;;;;;16.05;12.13;;;19.00;99.90;;;;;;5072916;28;20534;-40
2023/07/10 01:15:07;;;;;;;16.58;11.85;;;19.00;99.90;;;;;;5072685;28;20119;-40
2023/07/10 01:17:34;;;;;;;14.98;11.88;;;19.10;99.90;;;;;;5072560;28;20045;-43
2023/07/10 01:20:05;;;;;;;16.65;12.05;;;19.00;99.90;;;;;;5072894;28;20082;-41
2023/07/10 01:22:31;;;;;;;16.48;12.10;;;19.00;99.90;;;;;;5072956;28;20123;-40
2023/07/10 01:24:57;;;;;;;17.05;12.20;;;19.00;99.90;;;;;;5072831;28;20083;-40
2023/07/10 01:27:23;;;;;;;16.42;12.45;;;18.90;99.90;;;;;;5072326;28;20402;-41
2023/07/10 01:30:26;;;;;;;13.82;10.60;;;18.90;99.90;;;;;;5072857;28;20036;-40
2023/07/10 01:32:54;;;;;;;16.88;10.30;;;18.90;99.90;;;;;;5072940;28;20397;-41
2023/07/10 01:35:21;;;;;;;15.32;12.70;;;18.90;99.90;;;;;;5073041;28;20045;-40
2023/07/10 01:37:46;;;;;;;15.20;12.23;;;18.90;99.90;;;;;;5072455;28;20106;-41
2023/07/10 01:40:16;;;;;;;12.73;11.43;;;18.90;99.90;;;;;;5072537;28;20049;-41
2023/07/10 01:42:42;;;;;;;17.48;12.93;;;18.80;99.90;;;;;;5072837;28;20044;-41
2023/07/10 01:45:13;;;;;;;17.73;13.65;;;18.90;99.90;;;;;;5072970;28;20043;-40
2023/07/10 01:47:40;;;;;;;18.13;14.15;;;19.00;99.90;;;;;;5076460;28;20091;-41
2023/07/10 01:50:06;;;;;;;19.70;14.27;;;18.90;99.90;;;;;;5076533;28;20072;-40
2023/07/10 01:52:32;;;;;;;19.13;15.93;;;19.00;99.90;;;;;;5074912;28;20051;-40
2023/07/10 01:54:58;;;;;;;18.70;15.32;;;19.00;99.90;;;;;;5076286;28;20057;-41
2023/07/10 01:57:24;;;;;;;19.77;16.80;;;18.90;99.90;;;;;;5076204;28;20052;-41
2023/07/10 01:59:51;;;;;;;20.55;15.93;;;18.90;99.90;;;;;;5076432;28;20047;-41
2023/07/10 02:02:16;;;;;;;20.02;17.23;;;19.00;99.90;;;;;;5076138;28;20082;-41
2023/07/10 02:04:42;;;;;;;22.40;17.75;;;19.00;99.90;;;;;;5076060;28;20036;-42
2023/07/10 02:07:08;;;;;;;25.45;19.83;;;19.00;99.90;;;;;;5075830;28;20052;-41
2023/07/10 02:09:33;;;;;;;24.52;20.50;;;19.00;99.90;;;;;;5075998;28;20062;-40
2023/07/10 02:12:00;;;;;;;27.20;20.33;;;18.90;99.90;;;;;;5075969;28;20124;-40
2023/07/10 02:14:26;;;;;;;28.17;22.17;;;19.00;99.90;;;;;;5076027;28;20044;-41
2023/07/10 02:16:52;;;;;;;27.02;21.10;;;19.00;99.90;;;;;;5075743;28;20045;-40
2023/07/10 02:19:19;;;;;;;27.25;21.38;;;19.00;99.90;;;;;;5074883;28;20036;-42
2023/07/10 02:21:45;;;;;;;29.13;21.85;;;19.00;99.90;;;;;;5075577;28;20033;-40
2023/07/10 02:24:11;;;;;;;25.23;20.30;;;18.90;99.90;;;;;;5075748;28;20098;-41
2023/07/10 02:26:36;;;;;;;27.38;21.88;;;18.90;99.90;;;;;;5075418;28;20433;-42
2023/07/10 02:29:03;;;;;;;30.55;22.20;;;18.80;99.90;;;;;;5075531;28;20040;-41
2023/07/10 02:31:29;;;;;;;30.80;22.55;;;18.90;99.90;;;;;;5075782;28;20051;-40
2023/07/10 02:33:55;;;;;;;31.52;23.30;;;18.80;99.90;;;;;;5075525;28;20055;-42
2023/07/10 02:36:22;;;;;;;27.02;21.83;;;18.90;99.90;;;;;;5076402;28;20051;-41
2023/07/10 02:38:47;;;;;;;28.88;22.13;;;18.90;99.90;;;;;;5075520;28;20482;-41
2023/07/10 02:41:13;;;;;;;27.80;21.75;;;18.80;99.90;;;;;;5075516;28;20080;-41
2023/07/10 02:43:39;;;;;;;26.52;21.13;;;18.80;99.90;;;;;;5075208;28;20123;-41
2023/07/10 02:46:04;;;;;;;27.50;22.27;;;18.70;99.90;;;;;;5075551;28;20040;-41
2023/07/10 02:48:30;;;;;;;26.60;21.58;;;18.80;99.90;;;;;;5075069;28;20047;-41
2023/07/10 02:50:56;;;;;;;25.98;22.45;;;18.80;99.90;;;;;;5075499;28;20044;-41
2023/07/10 02:53:22;;;;;;;25.83;22.25;;;18.80;99.90;;;;;;5075581;28;20037;-41
2023/07/10 02:55:48;;;;;;;25.35;21.30;;;18.80;99.90;;;;;;5075401;28;20109;-43
2023/07/10 02:58:14;;;;;;;25.67;21.30;;;18.80;99.90;;;;;;5074046;28;20456;-43
2023/07/10 03:00:40;;;;;;;24.25;21.65;;;18.80;99.90;;;;;;5073877;28;20044;-41
2023/07/10 03:03:05;;;;;;;26.92;23.30;;;18.80;99.90;;;;;;5074848;28;20040;-41
2023/07/10 03:05:31;;;;;;;29.85;21.73;;;18.80;99.90;;;;;;5074974;28;20466;-41
2023/07/10 03:07:57;;;;;;;29.05;21.30;;;18.80;99.90;;;;;;5075061;28;20507;-42
2023/07/10 03:10:23;;;;;;;27.13;21.17;;;18.70;99.90;;;;;;5075007;28;20047;-41
2023/07/10 03:12:49;;;;;;;25.13;22.42;;;18.80;99.90;;;;;;5074843;28;20089;-40
2023/07/10 03:15:14;;;;;;;23.20;20.80;;;18.60;99.90;;;;;;5074694;28;20123;-40
2023/07/10 03:17:41;;;;;;;27.42;21.75;;;18.70;99.90;;;;;;5074537;28;20045;-41
2023/07/10 03:20:08;;;;;;;25.45;22.35;;;18.70;99.90;;;;;;5074481;28;20055;-42
2023/07/10 03:22:34;;;;;;;24.08;21.15;;;18.70;99.90;;;;;;5074727;28;20048;-41
2023/07/10 03:24:59;;;;;;;24.42;21.70;;;18.60;99.90;;;;;;5056643;28;20043;-42
2023/07/10 03:27:27;;;;;;;25.63;22.23;;;18.60;99.90;;;;;;5074566;28;20121;-43
2023/07/10 03:29:53;;;;;;;22.08;19.83;;;18.60;99.90;;;;;;5074716;28;20051;-40
2023/07/10 03:32:19;;;;;;;23.27;19.85;;;18.50;99.90;;;;;;5074200;28;20106;-41
2023/07/10 03:34:45;;;;;;;24.23;21.70;;;18.50;99.90;;;;;;5074139;28;20372;-40
2023/07/10 03:37:11;;;;;;;28.38;21.98;;;18.60;99.90;;;;;;5075062;28;20040;-40
2023/07/10 03:39:36;;;;;;;24.45;21.85;;;18.60;99.90;;;;;;5074862;28;20041;-40
2023/07/10 03:42:03;;;;;;;23.42;20.15;;;18.60;99.90;;;;;;5073095;28;20041;-40
2023/07/10 03:44:28;;;;;;;23.10;20.70;;;18.50;99.90;;;;;;5074297;28;20064;-42
2023/07/10 03:46:56;;;;;;;25.50;21.23;;;18.60;99.90;;;;;;5074239;28;20048;-42
2023/07/10 03:49:22;;;;;;;24.92;21.95;;;18.50;99.90;;;;;;5072643;28;20451;-42
2023/07/10 03:51:48;;;;;;;23.25;20.75;;;18.60;99.90;;;;;;5074173;28;20047;-42
2023/07/10 03:54:14;;;;;;;23.58;20.65;;;18.60;99.90;;;;;;5073909;28;20056;-40
2023/07/10 03:56:40;;;;;;;23.55;20.42;;;18.50;99.90;;;;;;5074089;28;20040;-41
2023/07/10 03:59:06;;;;;;;22.88;20.40;;;18.50;99.90;;;;;;5074228;28;20044;-42
2023/07/10 04:01:32;;;;;;;20.65;18.33;;;18.50;99.90;;;;;;5073923;28;20072;-41
2023/07/10 04:03:57;;;;;;;25.10;19.92;;;18.60;99.90;;;;;;5073703;28;20127;-42
2023/07/10 04:06:23;;;;;;;20.35;17.65;;;18.40;99.90;;;;;;5074069;28;20174;-40
2023/07/10 04:08:49;;;;;;;22.30;18.67;;;18.40;99.90;;;;;;5078289;28;20052;-41
2023/07/10 04:11:19;;;;;;;19.10;17.27;;;18.50;99.90;;;;;;5094227;28;20046;-40
2023/07/10 04:13:45;;;;;;;19.58;17.50;;;18.50;99.90;;;;;;5094328;28;20157;-41
2023/07/10 04:16:29;;;;;;;20.08;17.58;;;18.50;99.90;;;;;;5094086;28;20044;-40
2023/07/10 04:18:55;;;;;;;21.48;17.38;;;18.50;99.90;;;;;;5093913;28;20036;-40
2023/07/10 04:21:25;;;;;;;18.88;16.88;;;18.40;99.90;;;;;;5093990;28;20123;-40
2023/07/10 04:23:51;;;;;;;21.67;17.95;;;18.50;99.90;;;;;;5093734;28;20044;-40
2023/07/10 04:26:21;;;;;;;21.27;17.17;;;18.50;99.90;;;;;;5093682;28;20069;-41
2023/07/10 04:28:49;;;;;;;15.77;14.18;;;18.50;99.90;;;;;;5094148;28;20475;-40
2023/07/10 04:31:17;;;;;;;16.52;14.30;;;18.50;99.90;;;;;;5093709;28;20047;-40
2023/07/10 04:33:43;;;;;;;15.73;14.15;;;18.50;99.90;;;;;;5093742;28;20044;-42
2023/07/10 04:36:08;;;;;;;16.27;14.60;;;18.50;99.90;;;;;;5093519;28;20040;-43
2023/07/10 04:38:35;;;;;;;17.08;13.90;;;18.60;99.90;;;;;;5095018;28;20394;-41
2023/07/10 04:41:06;;;;;;;14.05;12.43;;;18.50;99.90;;;;;;5094270;28;20119;-41
2023/07/10 04:43:33;;;;;;;15.75;13.40;;;18.60;99.90;;;;;;5093248;28;20212;-40
2023/07/10 04:46:05;;;;;;;15.68;12.95;;;18.60;99.90;;;;;;5093398;28;20140;-42
2023/07/10 04:48:31;;;;;;;19.20;12.68;;;18.60;99.90;;;;;;5093353;28;20072;-43
2023/07/10 04:50:59;;;;;;;15.50;13.18;;;18.60;99.90;;;;;;5093382;28;20064;-41
2023/07/10 04:53:25;;;;;;;;;;;19.00;99.90;;;;;;5093951;28;20062;-40
2023/07/10 04:55:52;;;;;;;13.55;11.63;;;18.70;99.90;;;;;;5094111;28;20015;-41
2023/07/10 04:58:18;;;;;;;14.25;12.50;;;18.70;99.90;;;;;;5093291;28;20051;-42
2023/07/10 05:00:50;;;;;;;12.70;11.50;;;19.10;99.90;;;;;;5093395;28;20397;-42
2023/07/10 05:03:16;;;;;;;12.82;10.25;;;18.90;99.90;;;;;;5093291;28;20120;-43
2023/07/10 05:05:57;;;;;;;11.40;9.65;;;19.20;99.90;;;;;;5092861;28;20111;-41
2023/07/10 05:08:25;;;;;;;9.98;8.93;;;19.00;99.90;;;;;;5092675;28;20041;-42
2023/07/10 05:10:51;;;;;;;8.90;7.97;;;18.90;99.90;;;;;;5093086;28;20040;-42
2023/07/10 05:13:18;;;;;;;7.82;7.03;;;18.90;99.90;;;;;;5091654;28;20052;-40
2023/07/10 05:15:45;;;;;;;10.20;6.07;;;18.90;99.90;;;;;;5093273;28;20098;-40
2023/07/10 05:18:11;;;;;;;6.38;5.78;;;18.80;99.90;;;;;;5093317;28;20127;-41
2023/07/10 05:20:39;;;;;;;6.25;5.65;;;18.80;99.90;;;;;;5091381;28;20044;-41
2023/07/10 05:23:05;;;;;;;6.75;5.65;;;18.70;99.90;;;;;;5093225;28;20090;-41
2023/07/10 05:25:30;;;;;;;8.43;5.38;;;18.70;99.90;;;;;;5092937;28;20485;-41
2023/07/10 05:27:58;;;;;;;7.00;5.70;;;18.70;99.90;;;;;;5092679;28;20055;-41
2023/07/10 05:30:23;;;;;;;8.07;5.47;;;18.70;99.90;;;;;;5092940;28;20052;-41
2023/07/10 05:32:49;;;;;;;7.32;5.60;;;18.70;99.90;;;;;;5093015;28;20036;-41
2023/07/10 05:35:15;;;;;;;7.03;5.90;;;18.60;99.90;;;;;;5092067;28;20367;-40
2023/07/10 05:37:40;;;;;;;8.52;5.57;;;18.70;99.90;;;;;;5092520;28;20177;-40
2023/07/10 05:40:06;;;;;;;9.02;5.93;;;18.70;99.90;;;;;;5094477;28;20035;-41
2023/07/10 05:42:32;;;;;;;9.20;5.85;;;18.70;99.90;;;;;;5093477;28;20490;-45
2023/07/10 05:44:58;;;;;;;10.65;5.88;;;18.90;99.90;;;;;;5093059;28;20046;-40
2023/07/10 05:47:23;;;;;;;7.78;5.88;;;18.90;99.90;;;;;;5092955;28;20047;-41
2023/07/10 05:49:49;;;;;;;8.70;6.18;;;19.00;99.90;;;;;;5092936;28;20390;-41
2023/07/10 05:52:15;;;;;;;8.25;5.60;;;19.00;99.90;;;;;;5092415;28;20669;-44
2023/07/10 05:54:41;;;;;;;7.93;6.22;;;19.00;99.90;;;;;;5092066;28;20050;-41
2023/07/10 05:57:06;;;;;;;8.75;5.82;;;19.00;99.90;;;;;;5091774;28;20131;-41
2023/07/10 05:59:32;;;;;;;7.40;5.80;;;19.10;99.90;;;;;;5091047;28;20040;-41
2023/07/10 06:01:58;;;;;;;7.30;5.15;;;19.10;99.90;;;;;;5092865;28;20386;-41
2023/07/10 06:04:23;;;;;;;5.22;4.60;;;19.20;99.90;;;;;;5092295;28;20097;-45
2023/07/10 06:06:49;;;;;;;7.50;4.45;;;19.10;99.90;;;;;;5091235;28;20044;-41
2023/07/10 06:09:15;;;;;;;6.45;4.45;;;19.20;99.90;;;;;;5092225;28;20032;-41
2023/07/10 06:11:41;;;;;;;13.48;4.10;;;19.20;99.90;;;;;;5092178;28;20397;-41
2023/07/10 06:14:06;;;;;;;9.45;4.20;;;19.20;99.90;;;;;;5092134;28;20040;-40
2023/07/10 06:16:32;;;;;;;7.30;4.07;;;19.10;99.90;;;;;;5092484;28;20086;-42
2023/07/10 06:18:58;;;;;;;6.28;3.85;;;19.20;99.90;;;;;;5090982;28;20044;-42
2023/07/10 06:21:23;;;;;;;6.55;3.03;;;19.20;99.90;;;;;;5092160;28;20044;-41
2023/07/10 06:23:49;;;;;;;5.68;3.25;;;19.60;99.90;;;;;;5092511;28;20058;-42
2023/07/10 06:26:15;;;;;;;6.93;3.00;;;19.50;99.90;;;;;;5092476;28;20132;-43
2023/07/10 06:28:40;;;;;;;6.50;3.05;;;19.80;99.90;;;;;;5092095;28;20046;-40
2023/07/10 06:31:09;;;;;;;6.43;2.90;;;19.80;99.90;;;;;;5092171;28;20173;-41
2023/07/10 06:33:35;;;;;;;5.57;2.58;;;19.90;99.90;;;;;;5094537;28;20512;-42
2023/07/10 06:36:02;;;;;;;6.20;2.70;;;20.00;99.90;;;;;;5095600;28;20055;-42
2023/07/10 06:38:28;;;;;;;5.85;2.70;;;20.50;99.90;;;;;;5095650;28;20182;-42
2023/07/10 06:40:54;;;;;;;6.28;2.60;;;21.60;99.90;;;;;;5095856;28;20143;-42
2023/07/10 06:43:20;;;;;;;5.32;2.50;;;22.50;99.90;;;;;;5095803;28;20048;-42
2023/07/10 06:45:47;;;;;;;4.38;2.72;;;23.30;99.90;;;;;;5094050;28;20048;-41
2023/07/10 06:48:12;;;;;;;5.93;2.43;;;24.80;99.90;;;;;;5095219;28;20048;-42
2023/07/10 06:50:38;;;;;;;4.25;2.40;;;25.10;99.90;;;;;;5095218;28;20147;-41
2023/07/10 06:53:04;;;;;;;6.57;2.30;;;;;;;;;;5095085;28;20036;-42
2023/07/10 06:55:31;;;;;;;5.78;2.40;;;26.80;99.90;;;;;;5094557;28;20056;-41
2023/07/10 06:57:57;;;;;;;5.18;2.42;;;26.80;99.90;;;;;;5095322;28;20451;-41
2023/07/10 07:00:23;;;;;;;5.95;2.60;;;27.20;99.90;;;;;;5094890;28;20123;-42
2023/07/10 07:02:48;;;;;;;7.50;2.25;;;27.00;99.90;;;;;;5094793;28;20044;-42
2023/07/10 07:05:15;;;;;;;4.32;2.35;;;27.00;99.90;;;;;;5094786;28;20040;-42
2023/07/10 07:07:40;;;;;;;4.13;1.92;;;27.30;99.90;;;;;;5094785;28;20054;-41
2023/07/10 07:10:14;;;;;;;4.88;2.38;;;27.10;99.90;;;;;;5094727;28;20036;-41
2023/07/10 07:12:43;;;;;;;4.03;2.80;;;27.20;99.90;;;;;;5094612;28;20040;-41
2023/07/10 07:15:11;;;;;;;4.53;2.20;;;26.60;99.90;;;;;;5094524;28;20044;-41
2023/07/10 07:17:37;;;;;;;4.90;2.30;;;26.60;99.90;;;;;;5094505;28;20044;-41
2023/07/10 07:20:03;;;;;;;4.40;2.20;;;26.20;99.90;;;;;;5094446;28;20042;-42
2023/07/10 07:22:29;;;;;;;4.18;2.45;;;26.50;99.90;;;;;;5094129;28;20072;-42
2023/07/10 07:24:54;;;;;;;5.40;2.95;;;26.70;99.90;;;;;;5093111;28;20082;-42
2023/07/10 07:27:20;;;;;;;3.88;1.92;;;26.70;99.90;;;;;;5094324;28;20099;-41
2023/07/10 07:29:50;;;;;;;5.47;2.88;;;26.70;99.90;;;;;;5094318;28;20453;-43
2023/07/10 07:32:17;;;;;;;4.15;2.20;;;26.80;99.90;;;;;;5094391;28;20044;-44
2023/07/10 07:34:44;;;;;;;5.72;2.85;;;27.10;99.90;;;;;;5092927;28;20537;-42
2023/07/10 07:37:09;;;;;;;5.57;2.50;;;27.00;99.90;;;;;;5094397;28;20040;-41
2023/07/10 07:39:35;;;;;;;5.90;2.35;;;26.90;99.90;;;;;;5094378;28;20270;-41
2023/07/10 07:42:01;;;;;;;4.55;2.60;;;26.40;99.90;;;;;;5093930;28;20048;-41
2023/07/10 07:44:27;;;;;;;4.63;2.33;;;27.20;99.90;;;;;;5094513;28;20261;-42
2023/07/10 07:46:53;;;;;;;4.55;2.70;;;27.30;99.90;;;;;;5094520;28;20083;-42
2023/07/10 07:49:21;;;;;;;9.13;2.40;;;27.30;99.90;;;;;;5094395;28;20075;-42
2023/07/10 07:51:47;;;;;;;5.95;2.22;;;27.10;99.90;;;;;;5094217;28;20083;-43
2023/07/10 07:54:15;;;;;;;5.07;2.40;;;26.80;99.90;;;;;;5093537;28;20078;-42
2023/07/10 07:56:40;;;;;;;4.93;2.70;;;26.30;99.90;;;;;;5093638;28;20435;-42
2023/07/10 07:59:06;;;;;;;4.30;2.60;;;26.30;99.90;;;;;;5093509;28;20036;-41
2023/07/10 08:01:32;;;;;;;5.07;2.65;;;26.10;99.90;;;;;;5093992;28;20036;-41
2023/07/10 08:03:58;;;;;;;4.78;2.60;;;25.90;99.90;;;;;;5092645;28;20170;-41
2023/07/10 08:06:28;;;;;;;4.38;2.50;;;25.70;99.90;;;;;;5093900;28;20040;-41
2023/07/10 08:08:54;;;;;;;5.97;2.90;;;25.70;99.90;;;;;;5093525;28;20051;-41
2023/07/10 08:11:20;;;;;;;6.82;3.10;;;25.50;99.90;;;;;;5092117;28;20040;-42
2023/07/10 08:13:46;;;;;;;7.95;3.30;;;25.30;99.90;;;;;;5092094;28;20113;-41
2023/07/10 08:16:13;;;;;;;7.38;2.97;;;25.20;99.90;;;;;;5093797;28;20123;-43
2023/07/10 08:18:40;;;;;;;6.05;2.88;;;25.10;99.90;;;;;;5093511;28;20071;-42
2023/07/10 08:21:09;;;;;;;5.85;3.35;;;25.10;99.90;;;;;;5093529;28;20044;-41
2023/07/10 08:23:35;;;;;;;4.95;2.60;;;25.10;99.90;;;;;;5093236;28;20396;-41
2023/07/10 08:26:01;;;;;;;6.95;2.45;;;25.10;99.90;;;;;;5091938;28;20036;-41
2023/07/10 08:28:26;;;;;;;5.55;2.60;;;25.20;99.90;;;;;;5092829;28;20040;-41
2023/07/10 08:30:52;;;;;;;6.60;3.00;;;24.90;99.90;;;;;;5093252;28;20478;-41
2023/07/10 08:33:18;;;;;;;7.40;2.85;;;25.20;99.90;;;;;;5093239;28;20444;-44
2023/07/10 08:35:51;;;;;;;4.70;2.55;;;25.10;99.90;;;;;;5093206;28;20051;-42
2023/07/10 08:38:17;;;;;;;7.00;2.50;;;25.20;99.90;;;;;;5092817;28;20051;-42
2023/07/10 08:40:43;;;;;;;5.63;2.47;;;25.30;99.90;;;;;;5093332;28;20036;-41
2023/07/10 08:43:30;;;;;;;8.98;2.53;;;24.90;99.90;;;;;;5093391;28;20140;-42
2023/07/10 08:46:03;;;;;;;5.65;2.50;;;25.10;99.90;;;;;;5092822;28;20050;-44
2023/07/10 08:48:38;;;;;;;6.32;2.58;;;;;;;;;;5091658;28;20082;-42
2023/07/10 08:51:30;;;;;;;7.03;2.53;;;24.60;99.90;;;;;;5092593;28;20452;-41
2023/07/10 08:54:04;;;;;;;5.00;1.85;;;24.40;99.90;;;;;;5092818;28;20044;-41
2023/07/10 08:56:42;;;;;;;5.93;2.15;;;24.20;99.90;;;;;;5091823;28;20040;-41
2023/07/10 08:59:45;;;;;;;6.05;2.65;;;24.60;99.90;;;;;;5092401;28;20036;-41
2023/07/10 09:02:20;;;;;;;7.43;2.00;;;25.20;99.90;;;;;;5092573;28;20173;-43
2023/07/10 09:04:49;;;;;;;5.03;2.20;;;25.20;99.90;;;;;;5092640;28;20126;-41
2023/07/10 09:07:17;;;;;;;11.57;2.53;;;25.40;99.90;;;;;;5090918;28;20044;-44
2023/07/10 09:09:57;;;;;;;6.65;2.65;;;25.20;99.90;;;;;;5092192;28;20036;-41
2023/07/10 09:12:42;;;;;;;5.80;2.42;;;25.10;99.90;;;;;;5092445;28;20127;-42
2023/07/10 09:15:15;;;;;;;6.47;2.58;;;25.20;99.90;;;;;;5091255;28;20048;-41
2023/07/10 09:17:50;;;;;;;5.28;1.90;;;25.10;99.90;;;;;;5092224;28;20040;-41
2023/07/10 09:20:16;;;;;;;7.53;2.08;;;25.30;99.90;;;;;;5092632;28;20126;-42
2023/07/10 09:23:02;;;;;;;6.38;1.80;;;25.50;99.90;;;;;;5093318;28;20036;-40
2023/07/10 09:25:28;;;;;;;5.65;2.20;;;;;;;;;;5093175;28;20044;-42
2023/07/10 09:27:55;;;;;;;5.57;2.00;;;25.60;99.90;;;;;;5092517;28;20397;-42
2023/07/10 09:30:21;;;;;;;;;;;25.90;99.90;;;;;;5092676;28;20044;-42
2023/07/10 09:32:50;;;;;;;8.15;2.47;;;25.90;99.90;;;;;;5092249;28;20016;-42
2023/07/10 09:35:16;;;;;;;6.93;2.30;;;26.10;99.90;;;;;;5092617;28;20059;-43
2023/07/10 09:37:48;;;;;;;5.25;2.25;;;26.30;99.90;;;;;;5092639;28;20040;-42
2023/07/10 09:40:41;;;;;;;5.30;2.28;;;;;;;;;;5092252;28;20078;-43
2023/07/10 09:43:21;;;;;;;5.22;1.88;;;26.30;99.90;;;;;;5091933;28;20101;-42
2023/07/10 09:45:56;;;;;;;7.13;2.20;;;26.50;99.90;;;;;;5092433;28;20123;-40
2023/07/10 09:48:26;;;;;;;6.47;1.80;;;25.90;99.90;;;;;;5092363;28;20090;-40
2023/07/10 09:50:53;;;;;;;6.53;2.30;;;26.20;99.90;;;;;;5092263;28;20135;-41
2023/07/10 09:53:23;;;;;;;6.40;2.08;;;25.90;99.90;;;;;;5090850;28;20126;-42
2023/07/10 09:55:49;;;;;;;5.00;2.08;;;26.00;99.90;;;;;;5091529;28;20052;-42
2023/07/10 09:58:14;;;;;;;7.50;2.17;;;25.80;99.90;;;;;;5091891;28;20101;-42
2023/07/10 10:00:45;;;;;;;7.40;1.85;;;25.80;99.90;;;;;;5091927;28;20079;-42
2023/07/10 10:03:18;;;;;;;6.68;2.20;;;26.10;99.90;;;;;;5091849;28;20560;-41
2023/07/10 10:05:52;;;;;;;5.95;2.03;;;26.30;99.90;;;;;;5091932;28;20075;-41
2023/07/10 10:08:25;;;;;;;6.55;2.28;;;26.20;99.90;;;;;;5095523;28;20052;-41
2023/07/10 10:11:06;;;;;;;7.70;2.35;;;26.50;99.90;;;;;;5075884;28;20040;-43
2023/07/10 10:13:58;;;;;;;6.30;2.17;;;26.50;99.90;;;;;;5075550;28;20040;-40
2023/07/10 10:16:42;;;;;;;6.82;1.77;;;26.20;99.90;;;;;;5072856;28;20056;-41
2023/07/10 10:19:26;;;;;;;7.40;2.10;;;26.40;99.90;;;;;;5075509;28;20086;-40
2023/07/10 10:21:52;;;;;;;8.05;2.50;;;26.30;99.90;;;;;;5075485;28;20371;-40
2023/07/10 10:24:18;;;;;;;7.18;1.88;;;26.40;99.90;;;;;;5075084;28;20085;-42
2023/07/10 10:26:59;;;;;;;7.22;2.10;;;26.60;99.90;;;;;;5075045;28;20076;-44
2023/07/10 10:29:31;;;;;;;6.72;2.15;;;26.70;99.90;;;;;;5075406;28;20075;-41
2023/07/10 10:32:25;;;;;;;8.32;2.67;;;26.60;99.90;;;;;;5075211;28;20044;-41
2023/07/10 10:35:28;;;;;;;7.82;2.20;;;26.60;99.90;;;;;;5073751;28;20051;-40
2023/07/10 10:38:09;;;;;;;7.20;2.35;;;26.40;99.90;;;;;;5036088;28;20052;-41
2023/07/10 10:40:52;;;;;;;6.78;2.03;;;26.10;99.90;;;;;;5073621;28;20470;-40
2023/07/10 10:43:33;;;;;;;5.97;2.75;;;26.10;99.90;;;;;;5075235;28;20052;-42
2023/07/10 10:46:25;;;;;;;7.75;2.22;;;26.10;99.90;;;;;;5074796;28;20048;-42
2023/07/10 10:49:31;;;;;;;5.85;2.40;;;26.20;99.90;;;;;;5073186;28;20052;-41
2023/07/10 10:52:16;;;;;;;6.93;2.30;;;25.90;99.90;;;;;;5074467;28;20410;-41
2023/07/10 10:55:03;;;;;;;8.48;2.28;;;25.90;99.90;;;;;;5088747;28;20056;-41
2023/07/10 10:57:54;;;;;;;6.35;1.90;;;26.10;99.90;;;;;;5075108;28;20052;-41
2023/07/10 11:00:40;;;;;;;5.22;2.10;;;26.70;99.90;;;;;;5069577;28;20044;-42
2023/07/10 11:03:29;;;;;;;6.57;2.38;;;26.90;99.90;;;;;;5077112;28;20044;-42
2023/07/10 11:06:00;;;;;;;9.95;2.50;;;26.70;99.90;;;;;;5077423;28;20614;-40
2023/07/10 11:08:35;;;;;;;8.25;2.00;;;26.60;99.90;;;;;;5081284;28;20410;-41
2023/07/10 11:11:04;;;;;;;5.55;1.80;;;26.60;99.90;;;;;;5092897;28;20043;-42
2023/07/10 11:13:35;;;;;;;7.55;2.33;;;26.70;99.90;;;;;;5091128;28;20421;-41
2023/07/10 11:16:03;;;;;;;11.27;2.30;;;26.80;99.90;;;;;;5078212;28;20040;-41
2023/07/10 11:18:29;;;;;;;7.22;2.80;;;26.90;99.90;;;;;;5083595;28;20504;-40
2023/07/10 11:20:56;;;;;;;11.35;2.60;;;27.00;99.90;;;;;;5093460;28;20043;-41
2023/07/10 11:23:49;;;;;;;7.82;2.10;;;27.10;99.90;;;;;;5080702;28;20509;-40
2023/07/10 11:26:23;;;;;;;6.43;1.77;;;27.20;99.90;;;;;;5078723;28;20084;-41
2023/07/10 11:28:48;;;;;;;3.63;1.55;;;27.30;99.90;;;;;;5079439;28;20194;-40
2023/07/10 11:31:25;;;;;;;5.03;1.38;;;27.30;99.90;;;;;;5086407;28;20122;-42
2023/07/10 11:34:05;;;;;;;3.45;1.48;;;27.20;99.50;;;;;;5078196;28;20522;-40
2023/07/10 11:36:33;;;;;;;5.53;1.70;;;27.20;99.70;;;;;;5077147;28;20059;-40
2023/07/10 11:39:05;;;;;;;8.40;1.70;;;27.20;99.90;;;;;;5076613;28;20044;-39
2023/07/10 11:41:57;;;;;;;6.15;1.77;;;27.00;99.00;;;;;;5080263;28;20055;-39
2023/07/10 11:44:31;;;;;;;4.47;1.70;;;26.90;98.90;;;;;;5081405;28;20446;-41
2023/07/10 11:46:57;;;;;;;8.10;1.75;;;26.80;99.60;;;;;;5078018;28;20060;-41
2023/07/10 11:49:54;;;;;;;8.95;2.55;;;26.80;99.00;;;;;;5086691;28;20060;-40
2023/07/10 11:52:19;;;;;;;7.35;2.22;;;26.80;98.60;;;;;;5073314;28;20072;-43
2023/07/10 11:54:48;;;;;;;8.07;2.30;;;27.00;98.90;;;;;;5092380;28;20521;-40
2023/07/10 11:57:22;;;;;;;5.43;2.05;;;27.00;99.90;;;;;;5090203;28;20471;-40
2023/07/10 11:59:52;;;;;;;5.15;1.58;;;27.00;99.00;;;;;;5085976;28;20047;-40
2023/07/10 12:02:31;;;;;;;9.38;1.80;;;27.10;99.10;;;;;;5087608;22;20045;-40
2023/07/10 12:05:12;;;;;;;8.82;1.88;;;27.30;99.00;;;;;;4753853;22;20057;-40
2023/07/10 12:07:49;;;;;;;6.97;1.70;;;27.00;98.60;;;;;;5029443;28;20089;-41
2023/07/10 12:10:15;;;;;;;;;;;27.00;98.70;;;;;;5029882;28;20052;-39
2023/07/10 12:12:41;;;;;;;6.22;1.80;;;26.90;98.20;;;;;;5027867;28;19921;-40
2023/07/10 12:15:10;;;;;;;6.13;2.00;;;26.90;98.60;;;;;;5025868;28;20116;-39
2023/07/10 12:17:37;;;;;;;8.18;1.75;;;26.80;98.30;;;;;;5024487;28;20037;-42
2023/07/10 12:20:13;;;;;;;5.40;1.90;;;26.90;98.70;;;;;;5029714;28;20038;-40
2023/07/10 12:22:40;;;;;;;5.93;1.55;;;27.00;98.90;;;;;;5026730;28;20504;-40
2023/07/10 12:25:14;;;;;;;5.82;1.52;;;26.90;97.90;;;;;;5026465;28;20037;-40
2023/07/10 12:27:40;;;;;;;6.45;1.42;;;27.00;98.30;;;;;;5028435;28;20095;-38
2023/07/10 12:30:19;;;;;;;12.98;2.28;;;26.90;97.50;;;;;;5032212;28;20080;-39
2023/07/10 12:32:48;;;;;;;5.43;1.65;;;26.90;97.90;;;;;;5026261;28;20507;-43
2023/07/10 12:35:35;;;;;;;7.55;1.98;;;27.00;98.70;;;;;;5030144;28;20037;-42
2023/07/10 12:38:03;;;;;;;7.13;1.75;;;27.00;98.60;;;;;;5029040;28;20128;-40
2023/07/10 12:40:30;;;;;;;6.88;1.50;;;27.00;98.60;;;;;;5021492;28;20057;-42
2023/07/10 12:43:07;;;;;;;7.03;1.80;;;26.70;97.70;;;;;;5028114;28;20038;-40
2023/07/10 12:45:33;;;;;;;5.55;1.50;;;26.70;98.40;;;;;;5033156;28;20073;-40
2023/07/10 12:48:18;;;;;;;4.47;1.65;;;26.40;99.90;;;;;;5032770;28;20076;-41
2023/07/10 12:50:51;;;;;;;6.75;1.40;;;26.80;98.80;;;;;;4755719;22;20061;-40
2023/07/10 12:53:25;;;;;;;7.00;1.95;;;26.90;99.90;;;;;;5009832;28;20045;-41